createdAt,value
2018-12-13T00:02:16.486Z,5.27
2018-12-13T00:04:44.045Z,5.77
2018-12-13T00:07:11.620Z,6.20
2018-12-13T00:09:39.161Z,6.17
2018-12-13T00:12:06.731Z,6.00
2018-12-13T00:14:34.316Z,5.77
2018-12-13T00:17:01.854Z,5.80
2018-12-13T00:19:29.440Z,6.87
2018-12-13T00:21:57.009Z,5.83
2018-12-13T00:24:25.351Z,5.47
2018-12-13T00:26:52.886Z,5.60
2018-12-13T00:29:20.462Z,5.73
2018-12-13T00:31:48.035Z,5.77
2018-12-13T00:34:15.603Z,5.90
2018-12-13T00:36:43.143Z,5.67
2018-12-13T00:39:10.716Z,6.40
2018-12-13T00:41:39.056Z,5.57
2018-12-13T00:44:06.625Z,6.57
2018-12-13T00:46:34.190Z,5.70
2018-12-13T00:49:01.764Z,5.63
2018-12-13T00:51:31.055Z,6.20
2018-12-13T00:53:58.630Z,6.20
2018-12-13T00:56:26.180Z,6.10
2018-12-13T00:58:53.747Z,6.90
2018-12-13T01:01:22.052Z,5.73
2018-12-13T01:03:49.656Z,6.00
2018-12-13T01:06:17.196Z,6.27
2018-12-13T01:08:44.731Z,6.23
2018-12-13T01:11:12.301Z,6.00
2018-12-13T01:13:40.823Z,5.17
2018-12-13T01:16:09.348Z,5.67
2018-12-13T01:18:36.929Z,6.50
2018-12-13T01:21:04.479Z,6.73
2018-12-13T01:23:32.065Z,7.60
2018-12-13T01:25:59.622Z,10.43
2018-12-13T01:28:27.211Z,11.70
2018-12-13T01:30:55.529Z,12.77
2018-12-13T01:33:23.114Z,11.40
2018-12-13T01:35:51.632Z,10.20
2018-12-13T01:38:19.210Z,10.20
2018-12-13T01:40:46.758Z,10.35
2018-12-13T01:43:14.357Z,9.73
2018-12-13T01:45:42.837Z,7.60
2018-12-13T01:48:10.382Z,7.70
2018-12-13T01:50:38.932Z,7.13
2018-12-13T01:53:06.474Z,8.83
2018-12-13T01:55:34.050Z,6.67
2018-12-13T01:58:02.640Z,5.57
2018-12-13T02:00:30.189Z,5.50
2018-12-13T02:02:58.695Z,5.77
2018-12-13T02:05:26.276Z,5.33
2018-12-13T02:07:55.331Z,5.43
2018-12-13T02:10:22.914Z,5.77
2018-12-13T02:12:50.508Z,4.90
2018-12-13T02:15:18.051Z,7.53
2018-12-13T02:17:47.438Z,4.47
2018-12-13T02:20:16.004Z,4.30
2018-12-13T02:22:43.547Z,4.70
2018-12-13T02:25:11.748Z,4.40
2018-12-13T02:27:40.095Z,4.40
2018-12-13T02:30:09.631Z,5.23
2018-12-13T02:32:37.172Z,3.97
2018-12-13T02:35:04.773Z,5.67
2018-12-13T02:37:34.048Z,3.60
2018-12-13T02:40:01.629Z,3.30
2018-12-13T02:42:29.181Z,3.20
2018-12-13T02:44:56.755Z,3.50
2018-12-13T02:47:24.299Z,3.97
2018-12-13T02:49:51.868Z,3.50
2018-12-13T02:52:19.415Z,3.90
2018-12-13T02:54:47.007Z,3.50
2018-12-13T02:57:14.589Z,4.00
2018-12-13T02:59:42.170Z,5.40
2018-12-13T03:02:09.711Z,4.90
2018-12-13T03:04:37.266Z,3.20
2018-12-13T03:07:04.854Z,3.70
2018-12-13T03:09:32.404Z,3.30
2018-12-13T03:11:59.998Z,3.93
2018-12-13T03:14:27.541Z,3.10
2018-12-13T03:16:55.079Z,3.40
2018-12-13T03:19:22.660Z,3.70
2018-12-13T03:21:51.203Z,3.70
2018-12-13T03:24:19.549Z,3.77
2018-12-13T03:26:47.097Z,3.50
2018-12-13T03:29:16.667Z,3.70
2018-12-13T03:31:44.397Z,3.53
2018-12-13T03:34:11.898Z,3.83
2018-12-13T03:36:39.449Z,4.70
2018-12-13T03:39:07.030Z,4.30
2018-12-13T03:41:34.611Z,5.00
2018-12-13T03:44:02.201Z,3.60
2018-12-13T03:46:29.754Z,9.67
2018-12-13T03:48:57.336Z,5.30
2018-12-13T03:51:24.918Z,3.83
2018-12-13T03:53:52.496Z,4.00
2018-12-13T03:56:20.041Z,3.20
2018-12-13T03:58:47.711Z,3.37
2018-12-13T04:01:17.243Z,2.70
2018-12-13T04:03:45.590Z,2.73
2018-12-13T04:06:13.129Z,2.40
2018-12-13T04:08:40.712Z,2.57
2018-12-13T04:11:08.292Z,2.10
2018-12-13T04:13:36.638Z,2.37
2018-12-13T04:16:04.211Z,2.53
2018-12-13T04:18:33.744Z,4.17
2018-12-13T04:21:01.301Z,2.67
2018-12-13T04:23:28.900Z,2.17
2018-12-13T04:25:56.455Z,2.73
2018-12-13T04:28:24.032Z,2.50
2018-12-13T04:30:51.573Z,2.70
2018-12-13T04:33:19.156Z,2.47
2018-12-13T04:35:46.741Z,2.70
2018-12-13T04:38:16.248Z,2.70
2018-12-13T04:40:44.592Z,3.00
2018-12-13T04:43:27.065Z,2.87
2018-12-13T04:45:54.604Z,2.50
2018-12-13T04:48:22.184Z,3.07
2018-12-13T04:50:49.733Z,2.50
2018-12-13T04:53:17.305Z,3.17
2018-12-13T04:55:45.837Z,3.30
2018-12-13T04:58:13.416Z,3.50
2018-12-13T05:00:41.171Z,3.40
2018-12-13T05:03:08.883Z,3.47
2018-12-13T05:05:36.438Z,4.00
2018-12-13T05:08:04.009Z,3.30
2018-12-13T05:13:27.890Z,3.50
2018-12-13T05:15:55.440Z,3.50
2018-12-13T05:18:24.961Z,3.63
2018-12-13T05:20:52.505Z,3.27
2018-12-13T05:23:20.085Z,3.73
2018-12-13T05:25:47.624Z,3.70
2018-12-13T05:28:15.196Z,4.43
2018-12-13T05:30:42.736Z,3.87
2018-12-13T05:33:10.315Z,3.50
2018-12-13T05:35:38.874Z,3.40
2018-12-13T05:38:06.452Z,4.20
2018-12-13T05:40:33.991Z,3.43
2018-12-13T05:43:01.565Z,3.90
2018-12-13T05:45:29.144Z,4.00
2018-12-13T05:47:57.490Z,4.33
2018-12-13T05:50:25.041Z,4.10
2018-12-13T05:52:52.624Z,4.80
2018-12-13T05:55:20.272Z,4.50
2018-12-13T05:57:47.841Z,5.07
2018-12-13T06:00:15.392Z,4.70
2018-12-13T06:02:42.969Z,4.30
2018-12-13T06:05:10.561Z,3.83
2018-12-13T06:07:38.105Z,4.57
2018-12-13T06:10:06.720Z,4.27
2018-12-13T06:12:34.315Z,4.13
2018-12-13T06:15:01.900Z,3.57
2018-12-13T06:17:29.442Z,4.10
2018-12-13T06:19:57.787Z,4.47
2018-12-13T06:22:25.356Z,4.87
2018-12-13T06:24:52.938Z,4.50
2018-12-13T06:27:20.478Z,6.33
2018-12-13T06:29:49.058Z,6.83
2018-12-13T06:32:16.478Z,6.07
2018-12-13T06:34:44.072Z,5.63
2018-12-13T06:37:12.384Z,6.00
2018-12-13T06:39:39.925Z,5.70
2018-12-13T06:42:07.513Z,5.27
2018-12-13T06:44:36.039Z,8.30
2018-12-13T06:47:04.387Z,6.70
2018-12-13T06:49:31.941Z,5.73
2018-12-13T06:51:59.491Z,4.93
2018-12-13T06:54:27.079Z,5.37
2018-12-13T06:56:54.702Z,7.33
2018-12-13T06:59:22.277Z,6.60
2018-12-13T07:01:50.776Z,5.97
2018-12-13T07:04:18.357Z,5.90
2018-12-13T07:06:45.929Z,9.13
2018-12-13T07:09:13.519Z,6.13
2018-12-13T07:11:41.066Z,6.17
2018-12-13T07:14:08.643Z,5.80
2018-12-13T07:16:36.215Z,7.10
2018-12-13T07:19:03.797Z,8.50
2018-12-13T07:21:32.117Z,4.97
2018-12-13T07:23:59.705Z,6.80
2018-12-13T07:26:27.249Z,7.00
2018-12-13T07:28:54.824Z,6.77
2018-12-13T07:31:22.373Z,7.87
2018-12-13T07:33:49.969Z,7.40
2018-12-13T07:36:17.516Z,7.90
2018-12-13T07:38:46.801Z,7.30
2018-12-13T07:41:14.348Z,7.70
2018-12-13T07:43:41.898Z,8.47
2018-12-13T07:46:09.481Z,8.53
2018-12-13T07:48:37.789Z,7.70
2018-12-13T07:51:05.372Z,9.13
2018-12-13T07:53:32.961Z,15.37
2018-12-13T07:56:00.520Z,12.70
2018-12-13T07:58:29.820Z,16.00
2018-12-13T08:00:57.407Z,19.10
2018-12-13T08:03:24.955Z,13.40
2018-12-13T08:05:52.532Z,9.27
2018-12-13T08:08:21.038Z,9.77
2018-12-13T08:10:47.707Z,13.00
2018-12-13T08:13:15.262Z,12.50
2018-12-13T08:15:42.838Z,8.50
2018-12-13T08:18:10.395Z,8.30
2018-12-13T08:20:38.746Z,8.23
2018-12-13T08:23:06.306Z,19.93
2018-12-13T08:25:33.879Z,8.87
2018-12-13T08:28:01.997Z,8.90
2018-12-13T08:30:29.056Z,7.13
2018-12-13T08:32:56.598Z,6.20
2018-12-13T08:35:24.184Z,6.83
2018-12-13T08:37:51.728Z,7.30
2018-12-13T08:40:19.328Z,7.10
2018-12-13T08:42:47.650Z,7.60
2018-12-13T08:45:15.239Z,8.23
2018-12-13T08:47:42.783Z,8.40
2018-12-13T08:50:10.378Z,9.00
2018-12-13T08:52:38.688Z,7.73
2018-12-13T08:55:06.333Z,7.77
2018-12-13T08:57:33.864Z,7.37
2018-12-13T09:00:01.421Z,7.70
2018-12-13T09:02:29.771Z,8.10
2018-12-13T09:04:57.321Z,10.50
2018-12-13T09:07:24.896Z,9.33
2018-12-13T09:09:52.444Z,8.03
2018-12-13T09:12:20.020Z,9.80
2018-12-13T09:14:47.573Z,12.27
2018-12-13T09:17:15.156Z,14.80
2018-12-13T09:19:43.468Z,11.13
2018-12-13T09:22:11.044Z,10.30
2018-12-13T09:24:38.601Z,11.70
2018-12-13T09:27:06.184Z,10.67
2018-12-13T09:29:33.740Z,10.93
2018-12-13T09:32:01.321Z,10.80
2018-12-13T09:34:28.920Z,10.73
2018-12-13T09:36:57.420Z,9.20
2018-12-13T09:39:25.005Z,9.63
2018-12-13T09:41:53.354Z,9.50
2018-12-13T09:44:22.896Z,9.30
2018-12-13T09:46:50.457Z,10.57
2018-12-13T09:49:18.033Z,10.57
2018-12-13T09:51:46.582Z,10.87
2018-12-13T09:54:14.137Z,10.63
2018-12-13T09:56:42.491Z,10.13
2018-12-13T09:59:10.074Z,14.80
2018-12-13T10:01:37.657Z,12.90
2018-12-13T10:04:05.213Z,10.17
2018-12-13T10:06:32.792Z,11.07
2018-12-13T10:09:00.336Z,9.60
2018-12-13T10:11:27.917Z,8.30
2018-12-13T10:13:55.505Z,7.90
2018-12-13T10:16:23.090Z,7.80
2018-12-13T10:18:51.396Z,8.03
2018-12-13T10:21:19.993Z,8.17
2018-12-13T10:23:47.540Z,8.00
2018-12-13T10:26:15.134Z,7.53
2018-12-13T10:28:42.674Z,7.03
2018-12-13T10:31:10.239Z,7.20
2018-12-13T10:33:38.749Z,7.53
2018-12-13T10:36:07.325Z,7.50
2018-12-13T10:38:35.659Z,8.03
2018-12-13T10:41:03.254Z,8.17
2018-12-13T10:43:31.796Z,7.23
2018-12-13T10:45:59.376Z,6.57
2018-12-13T10:48:26.929Z,7.77
2018-12-13T10:50:54.516Z,7.90
2018-12-13T10:53:22.829Z,6.53
2018-12-13T10:55:50.406Z,7.40
2018-12-13T10:58:18.911Z,6.50
2018-12-13T11:03:40.769Z,6.30
2018-12-13T11:06:08.363Z,5.97
2018-12-13T11:08:35.917Z,6.70
2018-12-13T11:11:03.557Z,6.37
2018-12-13T11:13:31.099Z,6.57
2018-12-13T11:15:59.414Z,7.77
2018-12-13T11:18:26.984Z,6.90
2018-12-13T11:20:54.602Z,6.90
2018-12-13T11:23:22.173Z,6.70
2018-12-13T11:25:49.728Z,6.47
2018-12-13T11:31:12.499Z,6.65
2018-12-13T11:33:40.081Z,6.80
2018-12-13T11:36:07.643Z,6.67
2018-12-13T11:38:38.869Z,6.40
2018-12-13T11:41:06.451Z,6.23
2018-12-13T11:43:34.052Z,6.23
2018-12-13T11:46:02.365Z,6.83
2018-12-13T11:48:29.928Z,6.67
2018-12-13T11:50:57.499Z,7.00
2018-12-13T11:53:25.074Z,6.73
2018-12-13T11:55:52.621Z,5.97
2018-12-13T11:58:20.193Z,6.70
2018-12-13T12:00:47.742Z,6.13
2018-12-13T12:03:15.320Z,6.47
2018-12-13T12:05:42.865Z,6.73
2018-12-13T12:08:10.404Z,6.60
2018-12-13T12:10:37.980Z,6.60
2018-12-13T12:13:06.283Z,7.00
2018-12-13T12:15:33.869Z,7.27
2018-12-13T12:18:01.435Z,6.43
2018-12-13T12:20:28.994Z,7.20
2018-12-13T12:22:56.661Z,7.93
2018-12-13T12:25:24.243Z,8.10
2018-12-13T12:27:51.835Z,7.70
2018-12-13T12:30:20.316Z,7.90
2018-12-13T12:32:49.868Z,7.80
2018-12-13T12:35:17.413Z,7.40
2018-12-13T12:37:44.987Z,8.03
2018-12-13T12:40:12.534Z,7.67
2018-12-13T12:42:40.104Z,8.17
2018-12-13T12:45:07.664Z,7.70
2018-12-13T12:47:35.241Z,7.93
2018-12-13T12:50:03.549Z,7.97
2018-12-13T12:52:31.157Z,7.33
2018-12-13T12:54:58.695Z,8.90
2018-12-13T12:57:26.237Z,7.97
2018-12-13T12:59:53.812Z,8.10
2018-12-13T13:02:21.404Z,7.80
2018-12-13T13:04:49.003Z,9.13
2018-12-13T13:07:16.558Z,10.07
2018-12-13T13:09:44.147Z,8.60
2018-12-13T13:12:12.776Z,7.80
2018-12-13T13:14:40.349Z,8.17
2018-12-13T13:17:08.005Z,8.20
2018-12-13T13:19:35.592Z,8.37
2018-12-13T13:22:03.144Z,7.83
2018-12-13T13:24:30.740Z,7.70
2018-12-13T13:26:58.323Z,8.83
2018-12-13T13:29:25.900Z,7.97
2018-12-13T13:31:53.465Z,7.80
2018-12-13T13:34:21.033Z,8.20
2018-12-13T13:36:48.627Z,7.30
2018-12-13T13:39:16.207Z,8.17
2018-12-13T13:41:43.765Z,7.60
2018-12-13T13:44:11.353Z,11.27
2018-12-13T13:46:38.913Z,10.73
2018-12-13T13:49:06.495Z,8.80
2018-12-13T13:51:34.041Z,8.03
2018-12-13T13:54:01.620Z,7.97
2018-12-13T13:56:29.165Z,8.07
2018-12-13T13:58:56.752Z,8.30
2018-12-13T14:01:24.289Z,8.03
2018-12-13T14:03:51.864Z,7.70
2018-12-13T14:06:19.449Z,8.27
2018-12-13T14:08:47.033Z,7.17
2018-12-13T14:11:14.580Z,8.57
2018-12-13T14:13:42.152Z,9.23
2018-12-13T14:16:09.728Z,8.27
2018-12-13T14:18:37.280Z,9.87
2018-12-13T14:21:04.869Z,10.27
2018-12-13T14:23:32.408Z,7.70
2018-12-13T14:25:59.986Z,8.43
2018-12-13T14:28:27.532Z,7.70
2018-12-13T14:30:55.107Z,9.30
2018-12-13T14:33:24.388Z,8.80
2018-12-13T14:35:52.926Z,8.20
2018-12-13T14:38:21.429Z,9.80
2018-12-13T14:40:49.010Z,8.97
2018-12-13T14:43:16.583Z,8.70
2018-12-13T14:45:44.128Z,9.70
2018-12-13T14:48:11.701Z,8.60
2018-12-13T14:50:39.283Z,7.97
2018-12-13T14:53:06.856Z,7.70
2018-12-13T14:55:34.417Z,7.90
2018-12-13T14:58:01.988Z,8.53
2018-12-13T15:00:29.571Z,7.93
2018-12-13T15:02:57.169Z,9.20
2018-12-13T15:05:24.724Z,9.53
2018-12-13T15:07:52.306Z,9.13
2018-12-13T15:10:19.882Z,8.93
2018-12-13T15:12:47.469Z,9.10
2018-12-13T15:15:15.030Z,8.33
2018-12-13T15:17:42.588Z,9.70
2018-12-13T15:20:11.848Z,9.50
2018-12-13T15:22:40.364Z,8.90
2018-12-13T15:25:08.916Z,10.87
2018-12-13T15:27:36.842Z,10.47
2018-12-13T15:30:05.515Z,9.67
2018-12-13T15:32:33.075Z,10.17
2018-12-13T15:35:00.620Z,10.70
2018-12-13T15:37:28.965Z,8.90
2018-12-13T15:39:57.507Z,8.97
2018-12-13T15:42:25.105Z,11.30
2018-12-13T15:44:52.690Z,9.97
2018-12-13T15:47:20.242Z,9.33
2018-12-13T15:49:47.828Z,10.20
2018-12-13T15:52:15.422Z,9.67
2018-12-13T15:54:42.992Z,9.97
2018-12-13T15:57:11.497Z,9.80
2018-12-13T15:59:39.088Z,10.70
2018-12-13T16:02:06.665Z,10.53
2018-12-13T16:04:34.221Z,10.80
2018-12-13T16:07:01.800Z,15.17
2018-12-13T16:09:29.621Z,12.70
2018-12-13T16:11:59.182Z,12.77
2018-12-13T16:14:26.726Z,14.77
2018-12-13T16:16:54.301Z,14.37
2018-12-13T16:19:21.856Z,13.53
2018-12-13T16:21:49.473Z,15.93
2018-12-13T16:24:17.126Z,13.57
2018-12-13T16:26:44.668Z,12.87
2018-12-13T16:29:12.343Z,11.83
2018-12-13T16:31:39.931Z,11.17
2018-12-13T16:34:07.513Z,11.60
2018-12-13T16:36:35.845Z,11.37
2018-12-13T16:39:03.460Z,12.20
2018-12-13T16:41:31.050Z,11.87
2018-12-13T16:43:58.624Z,11.90
2018-12-13T16:46:26.172Z,11.33
2018-12-13T16:48:53.786Z,11.43
2018-12-13T16:51:22.133Z,12.13
2018-12-13T16:53:50.678Z,11.47
2018-12-13T16:56:19.206Z,15.70
2018-12-13T16:58:46.793Z,13.40
2018-12-13T17:01:14.383Z,12.33
2018-12-13T17:03:41.934Z,13.87
2018-12-13T17:06:09.521Z,13.40
2018-12-13T17:08:37.061Z,15.20
2018-12-13T17:11:04.662Z,17.58
2018-12-13T17:13:32.232Z,16.30
2018-12-13T17:15:59.870Z,17.10
2018-12-13T17:18:27.415Z,16.60
2018-12-13T17:20:55.040Z,18.00
2018-12-13T17:23:22.601Z,17.17
2018-12-13T17:25:50.197Z,16.97
2018-12-13T17:28:17.769Z,16.50
2018-12-13T17:30:45.353Z,19.50
2018-12-13T17:33:12.901Z,31.63
2018-12-13T17:35:41.239Z,24.33
2018-12-13T17:38:08.789Z,20.87
2018-12-13T17:40:36.368Z,14.03
2018-12-13T17:43:04.888Z,14.67
2018-12-13T17:45:32.480Z,15.53
2018-12-13T17:48:00.034Z,18.03
2018-12-13T17:50:28.596Z,20.37
2018-12-13T17:52:56.157Z,17.83
2018-12-13T17:55:23.705Z,15.33
2018-12-13T17:57:52.296Z,14.67
2018-12-13T18:00:19.904Z,14.73
2018-12-13T18:02:47.485Z,14.10
2018-12-13T18:05:15.049Z,14.97
2018-12-13T18:07:42.648Z,15.40
2018-12-13T18:10:10.243Z,15.07
2018-12-13T18:12:38.557Z,14.93
2018-12-13T18:15:06.317Z,15.00
2018-12-13T18:17:34.103Z,13.40
2018-12-13T18:20:03.692Z,13.30
2018-12-13T18:22:31.253Z,17.73
2018-12-13T18:24:58.840Z,16.17
2018-12-13T18:27:26.465Z,16.43
2018-12-13T18:29:55.985Z,16.80
2018-12-13T18:32:24.505Z,16.08
2018-12-13T18:34:52.306Z,16.53
2018-12-13T18:37:19.909Z,15.47
2018-12-13T18:39:48.272Z,53.37
2018-12-13T18:42:15.825Z,16.50
2018-12-13T18:44:43.429Z,18.67
2018-12-13T18:47:10.985Z,18.23
2018-12-13T18:49:39.334Z,22.00
2018-12-13T18:52:07.098Z,20.17
2018-12-13T18:54:34.943Z,19.47
2018-12-13T18:57:02.500Z,19.30
2018-12-13T18:59:30.110Z,16.90
2018-12-13T19:01:57.664Z,18.70
2018-12-13T19:04:25.249Z,18.20
2018-12-13T19:06:52.806Z,18.10
2018-12-13T19:09:22.349Z,21.20
2018-12-13T19:11:49.904Z,21.30
2018-12-13T19:14:17.514Z,19.90
2018-12-13T19:16:45.063Z,21.60
2018-12-13T19:19:12.628Z,22.47
2018-12-13T19:21:40.218Z,20.07
2018-12-13T19:24:07.785Z,22.10
2018-12-13T19:26:35.360Z,18.33
2018-12-13T19:29:03.667Z,18.13
2018-12-13T19:31:31.249Z,19.80
2018-12-13T19:33:58.829Z,18.50
2018-12-13T19:36:26.418Z,19.40
2018-12-13T19:38:53.975Z,26.70
2018-12-13T19:41:22.341Z,24.70
2018-12-13T19:43:49.903Z,19.90
2018-12-13T19:46:17.487Z,19.60
2018-12-13T19:48:45.044Z,18.40
2018-12-13T19:51:12.597Z,16.70
2018-12-13T19:53:40.190Z,16.37
2018-12-13T19:56:07.745Z,15.90
2018-12-13T19:58:37.274Z,17.33
2018-12-13T20:01:04.861Z,17.20
2018-12-13T20:03:32.564Z,17.30
2018-12-13T20:06:01.087Z,17.73
2018-12-13T20:08:29.444Z,17.70
2018-12-13T20:10:57.040Z,21.53
2018-12-13T20:13:25.428Z,17.80
2018-12-13T20:15:52.981Z,16.27
2018-12-13T20:18:21.131Z,18.53
2018-12-13T20:20:50.639Z,16.77
2018-12-13T20:23:18.189Z,17.00
2018-12-13T20:25:45.776Z,17.10
2018-12-13T20:28:13.325Z,16.87
2018-12-13T20:30:40.883Z,16.00
2018-12-13T20:33:08.543Z,16.57
2018-12-13T20:35:38.125Z,17.03
2018-12-13T20:38:05.715Z,18.37
2018-12-13T20:40:34.212Z,17.80
2018-12-13T20:43:01.796Z,16.47
2018-12-13T20:45:29.396Z,17.13
2018-12-13T20:47:57.749Z,17.47
2018-12-13T20:50:25.574Z,17.80
2018-12-13T20:52:53.252Z,16.37
2018-12-13T20:55:20.854Z,16.90
2018-12-13T20:57:50.381Z,18.17
2018-12-13T21:00:17.941Z,17.63
2018-12-13T21:02:45.532Z,22.73
2018-12-13T21:05:13.152Z,15.73
2018-12-13T21:07:40.724Z,15.70
2018-12-13T21:10:08.294Z,15.50
2018-12-13T21:12:37.863Z,16.20
2018-12-13T21:15:06.427Z,14.67
2018-12-13T21:17:34.020Z,14.23
2018-12-13T21:20:01.649Z,16.20
2018-12-13T21:22:29.199Z,17.70
2018-12-13T21:24:57.544Z,18.23
2018-12-13T21:27:25.130Z,15.67
2018-12-13T21:29:52.719Z,16.40
2018-12-13T21:32:20.273Z,16.17
2018-12-13T21:34:47.875Z,16.63
2018-12-13T21:37:15.451Z,19.50
2018-12-13T21:39:43.053Z,16.47
2018-12-13T21:42:10.596Z,17.13
2018-12-13T21:44:38.190Z,16.97
2018-12-13T21:47:05.740Z,15.97
2018-12-13T21:49:33.320Z,16.77
2018-12-13T21:52:00.872Z,16.80
2018-12-13T21:54:28.456Z,17.23
2018-12-13T21:56:56.030Z,15.10
2018-12-13T21:59:24.379Z,15.00
2018-12-13T22:01:51.919Z,16.60
2018-12-13T22:04:19.510Z,17.30
2018-12-13T22:06:47.059Z,15.97
2018-12-13T22:09:14.646Z,14.60
2018-12-13T22:11:43.154Z,15.00
2018-12-13T22:14:10.740Z,16.17
2018-12-13T22:16:38.288Z,15.17
2018-12-13T22:19:05.872Z,16.70
2018-12-13T22:21:34.430Z,16.80
2018-12-13T22:24:02.040Z,18.53
2018-12-13T22:26:29.597Z,16.33
2018-12-13T22:28:57.180Z,15.70
2018-12-13T22:31:24.761Z,16.67
2018-12-13T22:33:52.358Z,16.70
2018-12-13T22:36:19.908Z,17.50
2018-12-13T22:38:48.313Z,16.93
2018-12-13T22:41:15.898Z,16.27
2018-12-13T22:43:43.485Z,16.20
2018-12-13T22:46:11.069Z,16.43
2018-12-13T22:48:38.696Z,16.17
2018-12-13T22:51:06.293Z,16.77
2018-12-13T22:53:33.880Z,15.13
2018-12-13T22:56:01.425Z,15.30
2018-12-13T22:58:31.006Z,32.73
2018-12-13T23:00:59.329Z,20.97
2018-12-13T23:03:26.918Z,15.87
2018-12-13T23:05:55.559Z,17.10
2018-12-13T23:08:23.145Z,17.83
2018-12-13T23:10:51.660Z,17.90
2018-12-13T23:13:20.013Z,18.90
2018-12-13T23:15:47.569Z,16.00
2018-12-13T23:18:15.112Z,17.73
2018-12-13T23:20:42.700Z,16.70
2018-12-13T23:23:11.017Z,15.80
2018-12-13T23:25:38.613Z,16.57
2018-12-13T23:28:06.195Z,18.93
2018-12-13T23:30:33.755Z,17.67
2018-12-13T23:33:02.107Z,18.07
2018-12-13T23:35:29.693Z,16.83
2018-12-13T23:37:59.267Z,18.40
2018-12-13T23:40:26.827Z,16.80
2018-12-13T23:42:54.422Z,17.80
2018-12-13T23:45:22.045Z,18.80
2018-12-13T23:47:49.592Z,19.87
2018-12-13T23:50:17.169Z,22.50
2018-12-13T23:52:44.716Z,18.10
2018-12-13T23:55:13.295Z,18.40
2018-12-13T23:57:40.842Z,17.37
